Time;durP1;ratioP1;P1;durP2;ratioP2;P2;SDS_P1;SDS_P2;PMS_P1;PMS_P2;Temp;Humidity;BMP_temperature;BMP_pressure;BME280_temperature;BME280_humidity;BME280_pressure;Samples;Min_cycle;Max_cycle;Signal;HPM_P1;HPM_P2
2023/08/17 00:02:08;;;;;;;13.20;10.75;;;17.80;99.90;;;;;;8387022;28;20025;-81
2023/08/17 00:06:08;;;;;;;12.73;10.27;;;17.90;99.90;;;;;;8348673;28;20025;-81
2023/08/17 00:10:09;;;;;;;12.63;11.00;;;17.90;99.90;;;;;;8359629;28;20048;-82
2023/08/17 00:14:10;;;;;;;11.52;10.43;;;17.80;99.90;;;;;;8361736;28;20017;-81
2023/08/17 00:18:10;;;;;;;14.57;11.57;;;17.60;99.90;;;;;;8341272;28;20029;-82
2023/08/17 00:22:11;;;;;;;14.10;10.57;;;17.50;99.90;;;;;;8360641;28;20059;-81
2023/08/17 00:26:11;;;;;;;11.20;10.10;;;17.40;99.90;;;;;;8365374;28;20116;-82
2023/08/17 00:30:12;;;;;;;14.05;11.68;;;17.30;99.90;;;;;;8361334;28;20244;-82
2023/08/17 00:34:13;;;;;;;12.38;11.02;;;17.20;99.90;;;;;;8390308;28;20025;-81
2023/08/17 00:38:13;;;;;;;13.43;12.02;;;17.20;99.90;;;;;;8371769;28;20020;-82
2023/08/17 00:42:14;;;;;;;13.45;10.38;;;17.10;99.90;;;;;;8365728;28;20028;-81
2023/08/17 00:46:15;;;;;;;12.68;10.98;;;17.10;99.90;;;;;;8373754;28;20020;-81
2023/08/17 00:50:16;;;;;;;17.52;12.82;;;16.90;99.90;;;;;;8362102;28;20025;-81
2023/08/17 00:54:23;;;;;;;14.13;12.18;;;16.80;99.90;;;;;;8374245;28;20216;-81
2023/08/17 00:58:24;;;;;;;19.75;13.95;;;16.70;99.90;;;;;;8385391;28;20030;-81
2023/08/17 01:02:24;;;;;;;14.05;12.00;;;16.80;99.90;;;;;;8365375;28;20050;-81
2023/08/17 01:06:25;;;;;;;14.30;12.77;;;16.90;99.90;;;;;;8347181;28;20061;-81
2023/08/17 01:11:00;;;;;;;12.60;10.75;;;16.90;99.90;;;;;;8357819;28;20037;-81
2023/08/17 01:15:21;;;;;;;13.20;11.80;;;16.90;99.90;;;;;;8351110;28;20029;-81
2023/08/17 01:19:26;;;;;;;;;;;16.90;99.90;;;;;;8352027;28;20035;-81
2023/08/17 01:23:27;;;;;;;11.73;10.52;;;16.90;99.90;;;;;;8372617;28;19916;-81
2023/08/17 01:27:37;;;;;;;14.10;11.13;;;16.80;99.90;;;;;;8372226;28;20048;-81
2023/08/17 01:31:57;;;;;;;13.38;10.18;;;16.70;99.90;;;;;;8374765;28;20040;-81
2023/08/17 01:36:07;;;;;;;14.20;11.93;;;16.70;99.90;;;;;;8375824;28;20027;-81
2023/08/17 01:40:09;;;;;;;16.33;13.10;;;16.80;99.90;;;;;;8424346;28;20472;-81
2023/08/17 01:44:10;;;;;;;16.65;11.95;;;16.90;99.90;;;;;;8400909;28;20138;-81
2023/08/17 01:48:11;;;;;;;13.98;11.73;;;17.20;99.90;;;;;;8425208;28;20028;-81
2023/08/17 01:52:11;;;;;;;17.60;12.95;;;16.90;99.90;;;;;;8401100;28;20016;-81
2023/08/17 01:56:12;;;;;;;14.13;12.18;;;16.80;99.90;;;;;;8425552;28;20099;-81
2023/08/17 02:00:13;;;;;;;13.85;11.93;;;16.70;99.90;;;;;;8411617;28;20090;-81
2023/08/17 02:04:14;;;;;;;16.85;13.15;;;16.70;99.90;;;;;;8402819;28;20023;-81
2023/08/17 02:08:15;;;;;;;18.58;12.45;;;16.50;99.90;;;;;;8405012;28;20031;-80
2023/08/17 02:12:15;;;;;;;17.08;12.55;;;16.50;99.90;;;;;;8386683;28;20060;-80
2023/08/17 02:16:16;;;;;;;14.60;12.75;;;16.50;99.90;;;;;;8412648;28;20035;-81
2023/08/17 02:20:17;;;;;;;15.80;12.35;;;16.50;99.90;;;;;;8408955;28;20038;-81
2023/08/17 02:24:17;;;;;;;17.48;13.25;;;16.50;99.90;;;;;;8422295;28;20044;-80
2023/08/17 02:28:18;;;;;;;18.40;14.18;;;16.40;99.90;;;;;;8402138;28;20492;-81
2023/08/17 02:32:18;;;;;;;18.42;13.88;;;16.40;99.90;;;;;;8401349;28;20028;-81
2023/08/17 02:36:19;;;;;;;15.23;13.25;;;16.30;99.90;;;;;;8413271;28;20035;-80
2023/08/17 02:40:19;;;;;;;17.83;13.82;;;16.20;99.90;;;;;;8390851;28;20025;-80
2023/08/17 02:44:21;;;;;;;15.05;11.23;;;16.20;99.90;;;;;;8400485;28;20024;-80
2023/08/17 02:48:21;;;;;;;16.55;11.18;;;16.30;99.90;;;;;;8399163;28;20055;-81
2023/08/17 02:52:22;;;;;;;19.88;13.70;;;16.00;99.90;;;;;;8388642;28;20465;-81
2023/08/17 02:56:22;;;;;;;20.77;13.85;;;15.90;99.90;;;;;;8393861;28;20024;-81
2023/08/17 03:00:23;;;;;;;16.48;14.23;;;15.90;99.90;;;;;;8392633;28;20158;-80
2023/08/17 03:04:24;;;;;;;17.75;14.80;;;16.00;99.90;;;;;;8414270;28;20510;-80
2023/08/17 03:08:24;;;;;;;17.50;13.93;;;16.00;99.90;;;;;;8399067;28;20037;-80
2023/08/17 03:12:25;;;;;;;17.83;14.85;;;16.20;99.90;;;;;;8399445;28;20035;-80
2023/08/17 03:16:30;;;;;;;15.85;13.50;;;16.10;99.90;;;;;;8413756;28;20071;-81
2023/08/17 03:20:30;;;;;;;15.63;13.85;;;16.00;99.90;;;;;;8409939;28;20472;-82
2023/08/17 03:24:31;;;;;;;16.08;13.82;;;16.00;99.90;;;;;;8394968;28;20028;-80
2023/08/17 03:28:31;;;;;;;18.85;15.18;;;15.80;99.90;;;;;;8398048;28;20497;-80
2023/08/17 03:32:32;;;;;;;17.77;14.30;;;15.70;99.90;;;;;;8388499;28;20020;-80
2023/08/17 03:36:32;;;;;;;17.90;13.13;;;15.60;99.90;;;;;;8394422;28;20024;-81
2023/08/17 03:40:33;;;;;;;19.15;13.07;;;15.50;99.90;;;;;;8398230;28;20034;-80
2023/08/17 03:44:33;;;;;;;16.67;13.93;;;15.40;99.90;;;;;;8387591;28;20038;-80
2023/08/17 03:48:34;;;;;;;19.17;13.75;;;15.40;99.90;;;;;;8392145;28;20060;-80
2023/08/17 03:52:34;;;;;;;20.42;13.75;;;15.30;99.90;;;;;;8392100;28;20028;-80
2023/08/17 03:56:35;;;;;;;16.77;12.82;;;15.30;99.90;;;;;;8395191;28;20055;-79
2023/08/17 04:00:35;;;;;;;16.90;13.82;;;15.20;99.90;;;;;;8412929;28;20033;-80
2023/08/17 04:04:36;;;;;;;19.83;15.55;;;15.10;99.90;;;;;;8361900;28;20127;-81
2023/08/17 04:08:37;;;;;;;18.88;15.48;;;15.30;99.90;;;;;;8353088;28;20130;-80
2023/08/17 04:12:38;;;;;;;19.98;14.65;;;15.40;99.90;;;;;;8390342;28;20480;-80
2023/08/17 04:16:38;;;;;;;20.38;14.57;;;15.50;99.90;;;;;;8381942;28;20027;-80
2023/08/17 04:20:39;;;;;;;16.85;14.57;;;15.50;99.90;;;;;;8378903;28;20527;-81
2023/08/17 04:24:40;;;;;;;19.27;15.68;;;15.40;99.90;;;;;;8383934;28;20115;-82
2023/08/17 04:28:40;;;;;;;19.15;14.40;;;15.50;99.90;;;;;;8402179;28;20025;-82
2023/08/17 04:32:41;;;;;;;13.88;11.80;;;15.40;99.90;;;;;;8373298;28;20029;-81
2023/08/17 04:36:41;;;;;;;13.68;12.20;;;15.30;99.90;;;;;;8363594;28;20031;-82
2023/08/17 04:40:42;;;;;;;19.33;13.80;;;15.20;99.90;;;;;;8379175;28;20073;-81
2023/08/17 04:44:42;;;;;;;16.75;13.73;;;15.10;99.90;;;;;;8388383;28;20028;-82
2023/08/17 04:48:43;;;;;;;16.88;13.52;;;15.20;99.90;;;;;;8374046;28;20052;-83
2023/08/17 04:52:44;;;;;;;15.10;12.85;;;15.40;99.90;;;;;;8386137;28;20078;-83
2023/08/17 04:56:45;;;;;;;17.10;13.27;;;15.40;99.90;;;;;;8378537;28;20401;-82
2023/08/17 05:00:46;;;;;;;17.92;13.70;;;15.40;99.90;;;;;;8368283;28;20031;-84
2023/08/17 05:04:47;;;;;;;17.88;14.52;;;15.40;99.90;;;;;;8365836;28;20112;-83
2023/08/17 05:08:47;;;;;;;19.30;14.07;;;15.50;99.90;;;;;;8377329;28;20040;-82
2023/08/17 05:12:48;;;;;;;22.08;13.38;;;15.60;99.90;;;;;;8368797;28;20020;-84
2023/08/17 05:16:48;;;;;;;15.60;12.98;;;15.80;99.90;;;;;;8386949;28;20029;-84
2023/08/17 05:20:49;;;;;;;13.98;11.30;;;16.00;99.90;;;;;;8372297;28;20495;-83
2023/08/17 05:24:49;;;;;;;13.15;11.65;;;16.10;99.90;;;;;;8370909;28;20063;-84
2023/08/17 05:28:50;;;;;;;14.02;11.82;;;16.20;99.90;;;;;;8354813;28;20031;-84
2023/08/17 05:32:50;;;;;;;11.77;10.48;;;16.40;99.90;;;;;;8365661;28;20052;-83
2023/08/17 05:36:51;;;;;;;12.90;9.52;;;16.50;99.90;;;;;;8381626;28;20043;-83
2023/08/17 05:40:56;;;;;;;12.52;8.93;;;16.50;99.90;;;;;;8376974;28;20515;-83
2023/08/17 05:44:57;;;;;;;12.55;9.55;;;16.80;99.90;;;;;;8397875;28;20150;-84
2023/08/17 05:48:59;;;;;;;13.85;9.30;;;16.90;99.90;;;;;;8382388;28;20028;-83
2023/08/17 05:52:59;;;;;;;9.82;8.30;;;17.30;99.90;;;;;;8372293;28;20028;-83
2023/08/17 05:57:01;;;;;;;8.43;7.60;;;17.90;99.90;;;;;;8393060;28;20055;-83
2023/08/17 06:01:07;;;;;;;8.82;6.72;;;18.70;99.90;;;;;;8388918;28;20084;-84
2023/08/17 06:05:08;;;;;;;8.32;5.68;;;19.70;99.90;;;;;;8389466;28;20028;-84
2023/08/17 06:09:09;;;;;;;5.40;3.80;;;21.30;99.90;;;;;;8375801;28;20099;-85
2023/08/17 06:13:10;;;;;;;6.13;3.72;;;22.10;99.90;;;;;;8406241;28;20034;-84
2023/08/17 06:17:10;;;;;;;4.40;3.95;;;22.80;99.90;;;;;;8399561;28;20024;-84
2023/08/17 06:21:11;;;;;;;4.97;4.50;;;23.40;99.90;;;;;;8411814;28;20024;-84
2023/08/17 06:25:11;;;;;;;5.55;4.85;;;23.70;99.90;;;;;;8395694;28;20033;-86
2023/08/17 06:29:12;;;;;;;6.28;4.35;;;23.50;99.90;;;;;;8380625;28;20021;-84
2023/08/17 06:33:12;;;;;;;5.38;4.15;;;23.60;99.90;;;;;;8393197;28;20038;-83
2023/08/17 06:37:13;;;;;;;5.75;4.80;;;24.50;99.90;;;;;;8412334;28;20032;-84
2023/08/17 06:41:13;;;;;;;5.85;4.22;;;24.80;99.90;;;;;;8403386;28;20028;-84
2023/08/17 06:45:18;;;;;;;4.70;4.30;;;25.50;99.90;;;;;;8387732;28;20032;-84
2023/08/17 06:49:18;;;;;;;6.07;4.20;;;25.50;99.90;;;;;;8400776;28;20099;-84
2023/08/17 06:53:19;;;;;;;5.07;3.80;;;25.80;99.90;;;;;;8400251;28;20025;-84
2023/08/17 06:57:21;;;;;;;6.30;3.83;;;25.90;99.90;;;;;;8394927;28;20024;-84
2023/08/17 07:01:22;;;;;;;5.93;3.60;;;26.20;99.90;;;;;;8385375;28;20111;-85
2023/08/17 07:05:23;;;;;;;3.63;3.33;;;26.50;99.90;;;;;;8395158;28;20392;-84
2023/08/17 07:09:24;;;;;;;4.68;3.35;;;26.50;99.90;;;;;;8398280;28;20024;-85
2023/08/17 07:13:24;;;;;;;3.85;3.30;;;26.90;99.90;;;;;;8367262;28;20124;-84
2023/08/17 07:17:25;;;;;;;3.50;3.10;;;27.10;99.90;;;;;;8371901;28;20063;-84
2023/08/17 07:21:25;;;;;;;4.20;3.50;;;26.80;99.90;;;;;;8354357;28;20033;-84
2023/08/17 07:25:26;;;;;;;4.20;3.50;;;26.70;99.90;;;;;;8359175;28;20032;-85
2023/08/17 07:29:26;;;;;;;5.85;3.20;;;27.30;99.90;;;;;;8367614;28;20020;-84
2023/08/17 07:33:27;;;;;;;4.18;2.70;;;27.80;99.90;;;;;;8381066;28;20039;-84
2023/08/17 07:37:32;;;;;;;3.65;2.67;;;28.50;99.90;;;;;;8395054;28;20565;-83
2023/08/17 07:41:33;;;;;;;4.65;2.83;;;28.00;99.90;;;;;;8373094;28;20352;-84
2023/08/17 07:45:33;;;;;;;6.05;2.80;;;27.30;99.90;;;;;;8382533;28;20155;-84
2023/08/17 07:49:34;;;;;;;5.45;2.83;;;27.70;99.90;;;;;;8385136;28;20029;-85
2023/08/17 07:53:34;;;;;;;5.32;2.58;;;27.80;99.90;;;;;;8368455;28;20059;-86
2023/08/17 07:57:35;;;;;;;3.60;2.60;;;27.90;99.90;;;;;;8370008;28;20028;-84
2023/08/17 08:01:36;;;;;;;3.63;2.28;;;28.30;99.90;;;;;;8368394;28;20503;-84
2023/08/17 08:05:36;;;;;;;3.63;2.35;;;27.90;99.90;;;;;;8378749;28;20474;-85
2023/08/17 08:09:37;;;;;;;3.30;2.20;;;28.20;99.90;;;;;;8374170;28;20120;-85
2023/08/17 08:13:37;;;;;;;4.40;2.55;;;28.50;99.90;;;;;;8383671;28;20029;-84
2023/08/17 08:17:38;;;;;;;7.25;2.53;;;28.30;99.90;;;;;;8393281;28;20105;-84
2023/08/17 08:21:38;;;;;;;4.22;2.45;;;28.40;99.90;;;;;;8375170;28;20104;-85
2023/08/17 08:25:39;;;;;;;3.53;2.38;;;28.10;99.90;;;;;;8366609;28;20449;-84
2023/08/17 08:29:39;;;;;;;4.40;2.50;;;28.40;99.90;;;;;;8389984;28;20032;-85
2023/08/17 08:33:40;;;;;;;5.35;3.00;;;28.70;99.90;;;;;;8371046;28;20109;-84
2023/08/17 08:37:40;;;;;;;4.82;3.00;;;29.00;99.90;;;;;;8370198;28;20089;-85
2023/08/17 08:41:41;;;;;;;4.10;3.13;;;29.10;99.90;;;;;;8351379;28;20029;-84
2023/08/17 08:45:44;;;;;;;5.95;3.08;;;29.50;99.90;;;;;;8371501;28;20013;-83
2023/08/17 08:50:03;;;;;;;4.43;2.90;;;29.60;99.90;;;;;;8358594;28;20024;-83
2023/08/17 08:54:08;;;;;;;3.83;2.90;;;29.40;99.90;;;;;;8383706;28;20443;-84
2023/08/17 08:58:08;;;;;;;4.20;3.33;;;28.70;99.90;;;;;;8381127;28;20378;-83
2023/08/17 09:02:11;;;;;;;5.38;3.80;;;28.30;99.90;;;;;;8388030;28;20052;-84
2023/08/17 09:06:13;;;;;;;4.32;3.22;;;28.50;99.90;;;;;;8377375;28;20315;-83
2023/08/17 09:10:16;;;;;;;6.55;3.70;;;28.50;99.90;;;;;;8385013;28;20475;-84
2023/08/17 09:14:16;;;;;;;6.25;3.90;;;28.80;99.90;;;;;;8387866;28;20013;-84
2023/08/17 09:18:18;;;;;;;4.32;3.75;;;29.30;99.90;;;;;;8374981;28;20561;-84
2023/08/17 09:22:39;;;;;;;4.35;3.78;;;29.70;99.90;;;;;;8374744;28;20021;-85
2023/08/17 09:26:40;;;;;;;6.88;3.70;;;29.90;99.90;;;;;;8381432;28;20043;-83
2023/08/17 09:30:56;;;;;;;6.13;4.00;;;30.10;99.90;;;;;;8376217;28;20028;-84
2023/08/17 09:34:57;;;;;;;6.65;4.03;;;30.20;99.90;;;;;;8386216;28;20549;-85
2023/08/17 09:38:57;;;;;;;6.38;3.85;;;30.30;99.90;;;;;;8394698;28;20036;-84
2023/08/17 09:42:59;;;;;;;6.22;4.20;;;30.80;99.90;;;;;;8372041;28;20104;-85
2023/08/17 09:46:59;;;;;;;4.88;3.70;;;31.20;99.90;;;;;;8373216;28;20025;-84
2023/08/17 09:51:01;;;;;;;4.75;4.05;;;30.90;99.90;;;;;;8397610;28;20017;-83
2023/08/17 09:55:03;;;;;;;6.70;3.92;;;30.70;99.90;;;;;;8372564;28;20025;-85
2023/08/17 09:59:04;;;;;;;7.10;3.88;;;30.70;99.90;;;;;;8360759;28;20031;-84
2023/08/17 10:03:05;;;;;;;4.07;3.65;;;30.90;99.90;;;;;;8382278;28;20108;-85
2023/08/17 10:07:07;;;;;;;4.85;4.15;;;30.70;99.90;;;;;;8362692;28;20036;-84
2023/08/17 10:11:09;;;;;;;5.45;4.00;;;30.30;99.90;;;;;;8360085;28;20024;-84
2023/08/17 10:15:11;;;;;;;5.90;4.28;;;30.60;99.90;;;;;;8350134;28;20118;-84
2023/08/17 10:19:33;;;;;;;7.28;4.53;;;30.40;99.90;;;;;;8390555;28;20130;-84
2023/08/17 10:23:35;;;;;;;7.10;4.22;;;30.70;99.90;;;;;;8382612;28;20024;-81
2023/08/17 10:27:36;;;;;;;6.13;4.03;;;31.00;99.90;;;;;;8379843;28;20405;-82
2023/08/17 10:31:38;;;;;;;10.18;4.32;;;30.30;99.90;;;;;;8370616;28;20032;-82
2023/08/17 10:35:40;;;;;;;7.15;4.78;;;30.80;99.90;;;;;;8371559;28;20539;-82
2023/08/17 10:39:46;;;;;;;5.63;3.92;;;31.70;99.90;;;;;;8388353;28;20029;-82
2023/08/17 10:43:57;;;;;;;5.85;3.80;;;31.90;99.90;;;;;;8374034;28;20040;-82
2023/08/17 10:48:07;;;;;;;7.15;4.05;;;31.40;99.90;;;;;;8383694;28;20127;-81
2023/08/17 10:52:08;;;;;;;7.28;4.10;;;31.50;99.90;;;;;;8411697;28;20036;-82
2023/08/17 10:56:12;;;;;;;6.82;4.57;;;31.40;99.90;;;;;;8392643;28;20044;-82
2023/08/17 11:00:15;;;;;;;9.35;4.32;;;32.00;99.90;;;;;;8364940;28;20078;-82
2023/08/17 11:04:17;;;;;;;11.82;4.45;;;31.90;99.90;;;;;;8379855;28;20047;-81
2023/08/17 11:08:29;;;;;;;7.70;4.15;;;31.60;99.90;;;;;;8396089;28;20039;-82
2023/08/17 11:12:29;;;;;;;5.72;4.10;;;31.70;99.90;;;;;;8362562;28;20016;-82
2023/08/17 11:16:30;;;;;;;9.68;4.38;;;32.50;99.90;;;;;;8392470;28;20116;-82
2023/08/17 11:20:31;;;;;;;7.53;4.05;;;33.60;99.90;;;;;;8370668;28;20025;-82
2023/08/17 11:24:31;;;;;;;8.02;3.80;;;33.50;99.90;;;;;;8387538;28;20029;-82
2023/08/17 11:28:36;;;;;;;6.25;4.25;;;34.10;99.90;;;;;;8368217;28;20061;-82
2023/08/17 11:32:36;;;;;;;8.63;4.20;;;34.00;99.90;;;;;;8362128;28;20032;-81
2023/08/17 11:36:37;;;;;;;8.10;3.95;;;34.40;99.90;;;;;;8382179;28;20108;-82
2023/08/17 11:40:38;;;;;;;8.90;4.32;;;36.20;99.90;;;;;;8366544;28;20039;-82
2023/08/17 11:44:39;;;;;;;9.23;3.80;;;36.20;99.10;;;;;;8375054;28;20028;-82
2023/08/17 11:48:40;;;;;;;7.65;3.92;;;34.90;98.30;;;;;;8364749;28;20024;-82
2023/08/17 11:52:41;;;;;;;9.68;3.90;;;34.60;98.70;;;;;;8368773;28;20488;-82
2023/08/17 11:56:41;;;;;;;6.45;4.00;;;34.20;99.90;;;;;;8375547;28;20055;-81
2023/08/17 12:00:45;;;;;;;8.60;4.13;;;34.00;98.60;;;;;;8411839;28;20501;-82
2023/08/17 12:04:46;;;;;;;8.35;3.90;;;34.70;99.90;;;;;;8368272;28;20473;-82
2023/08/17 12:08:47;;;;;;;7.30;3.92;;;35.30;99.10;;;;;;8383950;28;20032;-82
2023/08/17 12:12:48;;;;;;;9.52;4.32;;;36.70;93.60;;;;;;8379871;28;20135;-82
2023/08/17 12:16:49;;;;;;;8.75;4.00;;;36.80;94.70;;;;;;8365304;28;20265;-81
2023/08/17 12:20:54;;;;;;;5.30;3.92;;;38.10;93.50;;;;;;8379963;28;20093;-82
2023/08/17 12:24:54;;;;;;;5.95;3.58;;;36.90;92.20;;;;;;8380463;28;20090;-82
2023/08/17 12:28:56;;;;;;;7.88;4.35;;;35.70;93.90;;;;;;8397611;28;20024;-82
2023/08/17 12:32:56;;;;;;;7.10;4.07;;;35.40;94.40;;;;;;8408472;28;20021;-83
2023/08/17 12:36:57;;;;;;;6.75;3.80;;;36.50;90.90;;;;;;8409756;28;20542;-82
2023/08/17 12:40:57;;;;;;;8.05;3.85;;;37.60;92.10;;;;;;8359244;28;20552;-82
2023/08/17 12:44:58;;;;;;;4.88;3.85;;;38.40;85.80;;;;;;8358218;28;20029;-82
2023/08/17 12:48:59;;;;;;;6.45;3.60;;;39.00;90.60;;;;;;8367803;28;20025;-82
2023/08/17 12:53:00;;;;;;;6.68;3.60;;;39.20;83.10;;;;;;8369516;28;20399;-83
2023/08/17 12:57:02;;;;;;;6.28;3.70;;;39.00;79.40;;;;;;8371997;28;20060;-83
2023/08/17 13:01:03;;;;;;;9.50;3.88;;;39.20;76.70;;;;;;8357095;28;20051;-82
2023/08/17 13:05:03;;;;;;;7.65;4.03;;;38.20;81.30;;;;;;8368739;28;20497;-82
2023/08/17 13:09:05;;;;;;;6.18;4.00;;;36.80;90.30;;;;;;8380170;28;20040;-81
2023/08/17 13:13:06;;;;;;;5.57;3.97;;;36.00;89.60;;;;;;8389287;28;20017;-82
2023/08/17 13:17:06;;;;;;;4.88;3.55;;;36.40;88.50;;;;;;8393031;28;20077;-80
2023/08/17 13:21:07;;;;;;;6.57;3.78;;;37.20;88.70;;;;;;8387801;28;20392;-82
2023/08/17 13:25:08;;;;;;;9.70;4.82;;;36.80;86.80;;;;;;8407334;28;20032;-82
2023/08/17 13:29:09;;;;;;;7.93;3.85;;;38.10;86.00;;;;;;8402698;28;20585;-82
2023/08/17 13:33:10;;;;;;;4.20;3.80;;;39.80;73.70;;;;;;8380578;28;20207;-82
2023/08/17 13:37:11;;;;;;;6.28;3.97;;;40.60;69.10;;;;;;8385317;28;20024;-82
2023/08/17 13:41:12;;;;;;;5.97;4.13;;;39.50;74.80;;;;;;8359025;28;20049;-81
2023/08/17 13:45:12;;;;;;;5.80;4.10;;;37.30;80.20;;;;;;8358294;28;20103;-82
2023/08/17 13:49:13;;;;;;;3.70;1.75;;;35.20;87.00;;;;;;8360612;28;20508;-82
2023/08/17 13:53:13;;;;;;;3.67;2.05;;;31.50;88.70;;;;;;8380831;28;20021;-82
2023/08/17 13:57:14;;;;;;;5.22;2.47;;;27.10;94.10;;;;;;8371781;28;20056;-81
2023/08/17 14:01:14;;;;;;;5.68;3.25;;;24.80;99.90;;;;;;8368586;28;20482;-81
2023/08/17 14:05:15;;;;;;;7.05;3.00;;;23.40;99.90;;;;;;8356227;28;20028;-80
2023/08/17 14:09:16;;;;;;;5.15;2.17;;;22.00;99.90;;;;;;8347178;28;20162;-81
2023/08/17 14:13:16;;;;;;;10.88;4.53;;;20.60;99.90;;;;;;8352641;28;20036;-84
2023/08/17 14:17:17;;;;;;;43.10;7.40;;;19.40;99.90;;;;;;8396207;28;20027;-85
2023/08/17 14:21:17;;;;;;;25.27;6.07;;;18.10;99.90;;;;;;8401241;28;20502;-87
2023/08/17 14:25:18;;;;;;;15.32;7.78;;;17.70;99.90;;;;;;8380699;28;20032;-87
2023/08/17 14:29:19;;;;;;;7.95;4.15;;;17.60;99.90;;;;;;8369782;28;20392;-88
2023/08/17 14:33:19;;;;;;;10.25;6.45;;;17.60;99.90;;;;;;8360404;28;20017;-86
2023/08/17 14:37:20;;;;;;;15.35;6.60;;;17.60;99.90;;;;;;8379151;28;20052;-86
2023/08/17 14:41:20;;;;;;;12.38;7.32;;;17.70;99.90;;;;;;8380172;28;20032;-85
2023/08/17 14:45:21;;;;;;;13.43;7.32;;;17.90;99.90;;;;;;8380644;28;20029;-85
2023/08/17 14:49:22;;;;;;;11.15;7.00;;;18.40;99.90;;;;;;8363197;28;20137;-84
2023/08/17 14:53:22;;;;;;;10.77;7.07;;;19.00;99.90;;;;;;8387765;28;20032;-84
2023/08/17 14:57:23;;;;;;;13.68;8.02;;;19.30;99.90;;;;;;8387193;28;20079;-85
2023/08/17 15:01:23;;;;;;;10.82;6.78;;;19.10;99.90;;;;;;8388116;28;20041;-84
2023/08/17 15:05:24;;;;;;;11.00;6.78;;;19.20;99.90;;;;;;8377292;28;20035;-85
2023/08/17 15:09:25;;;;;;;9.73;7.80;;;19.10;99.90;;;;;;8391047;28;20460;-87
2023/08/17 15:13:25;;;;;;;11.68;7.57;;;19.20;99.90;;;;;;8375017;28;20025;-85
2023/08/17 15:17:26;;;;;;;10.82;8.30;;;19.30;99.90;;;;;;8362986;28;20064;-84
2023/08/17 15:21:27;;;;;;;11.98;7.55;;;19.90;99.90;;;;;;8370244;28;20039;-84
2023/08/17 15:25:27;;;;;;;7.88;6.22;;;20.60;99.90;;;;;;8373757;28;20126;-85
2023/08/17 15:29:28;;;;;;;15.20;11.02;;;21.80;99.90;;;;;;8382862;28;20500;-85
2023/08/17 15:33:29;;;;;;;9.73;5.47;;;23.30;99.90;;;;;;8399062;28;20521;-87
2023/08/17 15:37:29;;;;;;;7.43;5.18;;;24.00;99.90;;;;;;8369959;28;20028;-87
2023/08/17 15:41:30;;;;;;;9.40;4.90;;;23.90;99.90;;;;;;8371350;28;20500;-86
2023/08/17 15:45:31;;;;;;;7.68;5.07;;;24.70;99.90;;;;;;8382341;28;20520;-86
2023/08/17 15:49:31;;;;;;;10.27;5.93;;;24.70;99.90;;;;;;8369207;28;20373;-86
2023/08/17 15:53:32;;;;;;;9.98;5.85;;;23.60;99.90;;;;;;8386072;28;20116;-86
2023/08/17 15:57:32;;;;;;;10.40;7.60;;;22.70;99.90;;;;;;8373035;28;20036;-87
2023/08/17 16:01:33;;;;;;;8.35;6.65;;;22.00;99.90;;;;;;8366384;28;20079;-86
2023/08/17 16:05:34;;;;;;;13.93;8.68;;;21.50;99.90;;;;;;8375579;28;20048;-89
2023/08/17 16:09:34;;;;;;;12.23;7.30;;;20.90;99.90;;;;;;8360692;28;20035;-86
2023/08/17 16:13:35;;;;;;;12.40;6.63;;;20.20;99.90;;;;;;8369896;28;20020;-85
2023/08/17 16:17:35;;;;;;;7.82;6.03;;;20.00;99.90;;;;;;8369086;28;20021;-82
2023/08/17 16:21:36;;;;;;;8.90;7.35;;;19.80;99.90;;;;;;8358806;28;20087;-85
2023/08/17 16:25:36;;;;;;;9.50;6.90;;;19.60;99.90;;;;;;8315675;23;20510;-77
2023/08/17 16:29:38;;;;;;;10.63;7.00;;;19.60;99.90;;;;;;8248922;28;20035;-77
2023/08/17 16:33:42;;;;;;;15.50;9.55;;;19.60;99.90;;;;;;8312721;28;20065;-77
2023/08/17 16:37:42;;;;;;;11.95;7.75;;;19.60;99.90;;;;;;8318910;28;20038;-77
2023/08/17 16:41:43;;;;;;;9.23;5.55;;;19.40;99.90;;;;;;8247640;28;20046;-79
2023/08/17 16:45:43;;;;;;;6.70;4.75;;;19.30;99.90;;;;;;8322031;28;20031;-77
2023/08/17 16:49:44;;;;;;;13.70;7.20;;;19.20;99.90;;;;;;8250827;28;20032;-76
2023/08/17 16:53:49;;;;;;;13.80;8.00;;;19.20;99.90;;;;;;8257868;28;20354;-77
2023/08/17 16:57:49;;;;;;;10.57;5.97;;;19.20;99.90;;;;;;8246910;28;20402;-77
2023/08/17 17:01:53;;;;;;;9.00;4.90;;;19.00;99.90;;;;;;8312714;28;20037;-77
2023/08/17 17:05:53;;;;;;;12.07;5.85;;;18.70;99.90;;;;;;8314771;28;20027;-77
2023/08/17 17:09:54;;;;;;;10.32;6.32;;;18.40;99.90;;;;;;8317759;28;20121;-77
2023/08/17 17:13:54;;;;;;;10.38;6.57;;;18.30;99.90;;;;;;8249941;28;20072;-78
2023/08/17 17:17:57;;;;;;;9.02;7.00;;;18.40;99.90;;;;;;8312683;28;20030;-78
2023/08/17 17:21:57;;;;;;;9.13;6.60;;;18.30;99.90;;;;;;8319570;28;20019;-80
2023/08/17 17:25:58;;;;;;;10.57;6.50;;;18.30;99.90;;;;;;8251006;28;20131;-80
2023/08/17 17:29:58;;;;;;;7.15;6.07;;;18.30;99.90;;;;;;8313463;28;20091;-79
2023/08/17 17:33:59;;;;;;;9.05;6.07;;;18.30;99.90;;;;;;8324762;28;20475;-80
2023/08/17 17:38:00;;;;;;;9.68;6.50;;;18.20;99.90;;;;;;8234473;28;20062;-80
2023/08/17 17:42:00;;;;;;;9.68;6.20;;;18.20;99.90;;;;;;8253880;28;20394;-80
2023/08/17 17:46:01;;;;;;;8.98;7.25;;;18.10;99.90;;;;;;8250117;28;20088;-79
2023/08/17 17:50:06;;;;;;;7.07;6.18;;;18.70;99.90;;;;;;8307803;28;20026;-79
2023/08/17 17:54:07;;;;;;;10.52;8.60;;;18.50;99.90;;;;;;8330437;28;20023;-79
2023/08/17 17:58:07;;;;;;;10.30;6.90;;;18.20;99.90;;;;;;8318700;28;20402;-79
2023/08/17 18:02:08;;;;;;;10.90;7.00;;;18.20;99.90;;;;;;8322365;28;20031;-79
2023/08/17 18:06:08;;;;;;;10.70;8.45;;;18.10;99.90;;;;;;8255981;28;20518;-79
2023/08/17 18:10:09;;;;;;;11.63;7.05;;;18.20;99.90;;;;;;8251434;28;20026;-79
2023/08/17 18:14:10;;;;;;;10.05;7.78;;;18.30;99.90;;;;;;8256261;28;20030;-79
2023/08/17 18:18:10;;;;;;;9.57;6.90;;;18.30;99.90;;;;;;8318614;28;20032;-79
2023/08/17 18:22:11;;;;;;;9.63;7.32;;;18.20;99.90;;;;;;8243687;28;20038;-79
2023/08/17 18:26:11;;;;;;;9.25;6.25;;;18.00;99.90;;;;;;8304471;28;20122;-79
2023/08/17 18:30:12;;;;;;;8.63;5.65;;;18.20;99.90;;;;;;8318087;28;20406;-79
2023/08/17 18:34:12;;;;;;;13.45;6.82;;;18.20;99.90;;;;;;8317740;28;20554;-79
2023/08/17 18:38:13;;;;;;;12.05;6.50;;;18.00;99.90;;;;;;8242735;28;20091;-79
2023/08/17 18:42:14;;;;;;;11.25;6.45;;;17.90;99.90;;;;;;8311055;28;20026;-79
2023/08/17 18:46:14;;;;;;;9.43;6.40;;;17.80;99.90;;;;;;8318979;28;20522;-79
2023/08/17 18:50:15;;;;;;;10.88;7.10;;;17.70;99.90;;;;;;8314150;28;20023;-79
2023/08/17 18:54:16;;;;;;;10.73;7.72;;;17.90;99.90;;;;;;8252615;28;20034;-78
2023/08/17 18:58:18;;;;;;;13.75;8.15;;;18.00;99.90;;;;;;8240787;28;20031;-79
2023/08/17 19:02:19;;;;;;;12.63;8.50;;;17.90;99.90;;;;;;8312538;28;20519;-79
2023/08/17 19:06:19;;;;;;;13.77;8.82;;;17.80;99.90;;;;;;8321402;28;20029;-79
2023/08/17 19:10:20;;;;;;;12.02;8.73;;;17.90;99.90;;;;;;8312273;28;20015;-78
2023/08/17 19:14:20;;;;;;;13.20;9.93;;;17.70;99.90;;;;;;8233391;28;20109;-79
2023/08/17 19:18:21;;;;;;;16.13;9.75;;;17.70;99.90;;;;;;8309111;28;20335;-79
2023/08/17 19:22:21;;;;;;;13.88;9.93;;;17.50;99.90;;;;;;8310239;28;20502;-79
2023/08/17 19:26:22;;;;;;;11.93;9.25;;;17.40;99.90;;;;;;8317740;28;20041;-79
2023/08/17 19:30:22;;;;;;;11.93;10.60;;;17.40;99.90;;;;;;8313226;28;20033;-78
2023/08/17 19:34:23;;;;;;;12.95;9.80;;;17.40;99.90;;;;;;8334502;28;20033;-79
2023/08/17 19:38:24;;;;;;;15.20;9.60;;;17.30;99.90;;;;;;8338142;28;20184;-79
2023/08/17 19:42:24;;;;;;;12.77;9.15;;;17.20;99.90;;;;;;8322382;28;20443;-78
2023/08/17 19:46:25;;;;;;;10.43;8.18;;;17.60;99.90;;;;;;8312008;28;20075;-79
2023/08/17 19:50:26;;;;;;;9.10;6.82;;;17.80;99.90;;;;;;8323833;28;20354;-78
2023/08/17 19:54:26;;;;;;;9.32;6.43;;;17.90;99.90;;;;;;8251568;28;20050;-77
2023/08/17 19:58:27;;;;;;;11.52;7.15;;;17.90;99.90;;;;;;8312904;28;20036;-78
2023/08/17 20:02:28;;;;;;;9.75;6.20;;;17.80;99.90;;;;;;8253151;28;20091;-78
2023/08/17 20:06:29;;;;;;;9.00;7.03;;;17.70;99.90;;;;;;8267729;28;20417;-78
2023/08/17 20:10:30;;;;;;;10.38;7.88;;;17.40;99.90;;;;;;8325029;28;20770;-78
2023/08/17 20:14:34;;;;;;;10.23;7.32;;;17.40;99.90;;;;;;8317557;28;20018;-78
2023/08/17 20:18:34;;;;;;;7.18;6.47;;;17.20;99.90;;;;;;8258705;28;20026;-80
2023/08/17 20:22:35;;;;;;;10.73;7.63;;;17.10;99.90;;;;;;8318923;28;20038;-79
2023/08/17 20:26:35;;;;;;;7.95;7.00;;;16.90;99.90;;;;;;8309335;28;20066;-79
2023/08/17 20:30:36;;;;;;;10.43;6.95;;;16.80;99.90;;;;;;8248819;28;20022;-79
2023/08/17 20:34:37;;;;;;;8.68;6.68;;;16.70;99.90;;;;;;8316289;28;20129;-79
2023/08/17 20:38:37;;;;;;;9.18;6.43;;;16.60;99.90;;;;;;8314495;28;20114;-79
2023/08/17 20:42:38;;;;;;;9.27;6.57;;;16.70;99.90;;;;;;8319143;28;20501;-79
2023/08/17 20:46:38;;;;;;;9.60;7.22;;;16.70;99.90;;;;;;8320093;28;20092;-79